sensor_id;sensor_type;location;lat;lon;timestamp;temperature;humidity
7206;DHT22;3644;53.480;10.004;2023-04-25T00:01:06;10.10;99.90
7206;DHT22;3644;53.480;10.004;2023-04-25T00:03:32;10.00;99.90
7206;DHT22;3644;53.480;10.004;2023-04-25T00:05:58;10.10;99.90
7206;DHT22;3644;53.480;10.004;2023-04-25T00:08:28;10.20;99.90
7206;DHT22;3644;53.480;10.004;2023-04-25T00:10:54;10.20;99.90
7206;DHT22;3644;53.480;10.004;2023-04-25T00:13:19;10.00;99.90
7206;DHT22;3644;53.480;10.004;2023-04-25T00:15:45;10.00;99.90
7206;DHT22;3644;53.480;10.004;2023-04-25T00:18:11;9.90;99.90
7206;DHT22;3644;53.480;10.004;2023-04-25T00:20:37;9.90;99.90
7206;DHT22;3644;53.480;10.004;2023-04-25T00:23:02;9.90;99.90
7206;DHT22;3644;53.480;10.004;2023-04-25T00:25:28;9.90;99.90
7206;DHT22;3644;53.480;10.004;2023-04-25T00:27:54;9.80;99.90
7206;DHT22;3644;53.480;10.004;2023-04-25T00:30:20;9.70;99.90
7206;DHT22;3644;53.480;10.004;2023-04-25T00:32:45;9.60;99.90
7206;DHT22;3644;53.480;10.004;2023-04-25T00:35:11;9.60;99.90
7206;DHT22;3644;53.480;10.004;2023-04-25T00:37:37;9.50;99.90
7206;DHT22;3644;53.480;10.004;2023-04-25T00:40:05;9.50;99.90
7206;DHT22;3644;53.480;10.004;2023-04-25T00:42:31;9.50;99.90
7206;DHT22;3644;53.480;10.004;2023-04-25T00:44:58;9.40;99.90
7206;DHT22;3644;53.480;10.004;2023-04-25T00:47:25;9.40;99.90
7206;DHT22;3644;53.480;10.004;2023-04-25T00:49:50;9.50;99.90
7206;DHT22;3644;53.480;10.004;2023-04-25T00:52:16;9.50;99.90
7206;DHT22;3644;53.480;10.004;2023-04-25T00:54:42;9.50;99.90
7206;DHT22;3644;53.480;10.004;2023-04-25T00:57:08;9.50;99.90
7206;DHT22;3644;53.480;10.004;2023-04-25T00:59:33;9.50;99.90
7206;DHT22;3644;53.480;10.004;2023-04-25T01:01:59;9.60;99.90
7206;DHT22;3644;53.480;10.004;2023-04-25T01:04:27;9.50;99.90
7206;DHT22;3644;53.480;10.004;2023-04-25T01:06:52;9.40;99.90
7206;DHT22;3644;53.480;10.004;2023-04-25T01:09:19;9.50;99.90
7206;DHT22;3644;53.480;10.004;2023-04-25T01:11:45;9.40;99.90
7206;DHT22;3644;53.480;10.004;2023-04-25T01:14:11;9.50;99.90
7206;DHT22;3644;53.480;10.004;2023-04-25T01:16:36;9.40;99.90
7206;DHT22;3644;53.480;10.004;2023-04-25T01:19:07;9.20;99.90
7206;DHT22;3644;53.480;10.004;2023-04-25T01:21:34;9.20;99.90
7206;DHT22;3644;53.480;10.004;2023-04-25T01:24:00;9.30;99.90
7206;DHT22;3644;53.480;10.004;2023-04-25T01:26:26;9.20;99.90
7206;DHT22;3644;53.480;10.004;2023-04-25T01:28:52;9.10;99.90
7206;DHT22;3644;53.480;10.004;2023-04-25T01:31:18;9.10;99.90
7206;DHT22;3644;53.480;10.004;2023-04-25T01:33:44;9.00;99.90
7206;DHT22;3644;53.480;10.004;2023-04-25T01:36:10;9.00;99.90
7206;DHT22;3644;53.480;10.004;2023-04-25T01:38:36;9.00;99.90
7206;DHT22;3644;53.480;10.004;2023-04-25T01:41:02;8.90;99.90
7206;DHT22;3644;53.480;10.004;2023-04-25T01:43:27;8.90;99.90
7206;DHT22;3644;53.480;10.004;2023-04-25T01:45:53;9.00;99.90
7206;DHT22;3644;53.480;10.004;2023-04-25T01:48:18;9.10;99.90
7206;DHT22;3644;53.480;10.004;2023-04-25T01:50:45;9.10;99.90
7206;DHT22;3644;53.480;10.004;2023-04-25T01:53:13;8.90;99.90
7206;DHT22;3644;53.480;10.004;2023-04-25T01:55:38;9.00;99.90
7206;DHT22;3644;53.480;10.004;2023-04-25T01:58:04;9.00;99.90
7206;DHT22;3644;53.480;10.004;2023-04-25T02:00:34;9.00;99.90
7206;DHT22;3644;53.480;10.004;2023-04-25T02:03:00;9.00;99.90
7206;DHT22;3644;53.480;10.004;2023-04-25T02:05:25;8.90;99.90
7206;DHT22;3644;53.480;10.004;2023-04-25T02:07:51;9.00;99.90
7206;DHT22;3644;53.480;10.004;2023-04-25T02:10:17;9.00;99.90
7206;DHT22;3644;53.480;10.004;2023-04-25T02:12:42;8.90;99.90
7206;DHT22;3644;53.480;10.004;2023-04-25T02:15:08;9.00;99.90
7206;DHT22;3644;53.480;10.004;2023-04-25T02:17:33;8.80;99.90
7206;DHT22;3644;53.480;10.004;2023-04-25T02:19:59;8.80;99.90
7206;DHT22;3644;53.480;10.004;2023-04-25T02:22:25;8.90;99.90
7206;DHT22;3644;53.480;10.004;2023-04-25T02:24:52;8.70;99.90
7206;DHT22;3644;53.480;10.004;2023-04-25T02:27:18;8.90;99.90
7206;DHT22;3644;53.480;10.004;2023-04-25T02:29:43;8.80;99.90
7206;DHT22;3644;53.480;10.004;2023-04-25T02:32:09;8.80;99.90
7206;DHT22;3644;53.480;10.004;2023-04-25T02:34:34;8.70;99.90
7206;DHT22;3644;53.480;10.004;2023-04-25T02:37:00;8.80;99.90
7206;DHT22;3644;53.480;10.004;2023-04-25T02:39:25;8.80;99.90
7206;DHT22;3644;53.480;10.004;2023-04-25T02:41:52;8.90;99.90
7206;DHT22;3644;53.480;10.004;2023-04-25T02:44:18;8.80;99.90
7206;DHT22;3644;53.480;10.004;2023-04-25T02:46:43;8.70;99.90
7206;DHT22;3644;53.480;10.004;2023-04-25T02:49:09;8.60;99.90
7206;DHT22;3644;53.480;10.004;2023-04-25T02:51:34;8.60;99.90
7206;DHT22;3644;53.480;10.004;2023-04-25T02:54:00;8.70;99.90
7206;DHT22;3644;53.480;10.004;2023-04-25T02:56:25;8.60;99.90
7206;DHT22;3644;53.480;10.004;2023-04-25T02:58:52;8.60;99.90
7206;DHT22;3644;53.480;10.004;2023-04-25T03:01:18;8.60;99.90
7206;DHT22;3644;53.480;10.004;2023-04-25T03:03:43;8.60;99.90
7206;DHT22;3644;53.480;10.004;2023-04-25T03:06:09;8.60;99.90
7206;DHT22;3644;53.480;10.004;2023-04-25T03:08:34;8.60;99.90
7206;DHT22;3644;53.480;10.004;2023-04-25T03:11:00;8.50;99.90
7206;DHT22;3644;53.480;10.004;2023-04-25T03:13:26;8.60;99.90
7206;DHT22;3644;53.480;10.004;2023-04-25T03:15:52;8.60;99.90
7206;DHT22;3644;53.480;10.004;2023-04-25T03:18:18;8.50;99.90
7206;DHT22;3644;53.480;10.004;2023-04-25T03:20:43;8.60;99.90
7206;DHT22;3644;53.480;10.004;2023-04-25T03:23:09;8.50;99.90
7206;DHT22;3644;53.480;10.004;2023-04-25T03:25:35;8.60;99.90
7206;DHT22;3644;53.480;10.004;2023-04-25T03:28:00;8.50;99.90
7206;DHT22;3644;53.480;10.004;2023-04-25T03:30:25;8.50;99.90
7206;DHT22;3644;53.480;10.004;2023-04-25T03:32:51;8.50;99.90
7206;DHT22;3644;53.480;10.004;2023-04-25T03:35:17;8.40;99.90
7206;DHT22;3644;53.480;10.004;2023-04-25T03:37:42;8.30;99.90
7206;DHT22;3644;53.480;10.004;2023-04-25T03:40:11;8.30;99.90
7206;DHT22;3644;53.480;10.004;2023-04-25T03:42:36;8.40;99.90
7206;DHT22;3644;53.480;10.004;2023-04-25T03:45:02;8.40;99.90
7206;DHT22;3644;53.480;10.004;2023-04-25T03:47:27;8.20;99.90
7206;DHT22;3644;53.480;10.004;2023-04-25T03:49:53;8.10;99.90
7206;DHT22;3644;53.480;10.004;2023-04-25T03:52:19;8.20;99.90
7206;DHT22;3644;53.480;10.004;2023-04-25T03:54:44;8.20;99.90
7206;DHT22;3644;53.480;10.004;2023-04-25T03:57:10;8.10;99.90
7206;DHT22;3644;53.480;10.004;2023-04-25T03:59:35;8.20;99.90
7206;DHT22;3644;53.480;10.004;2023-04-25T04:02:01;8.10;99.90
7206;DHT22;3644;53.480;10.004;2023-04-25T04:04:26;8.10;99.90
7206;DHT22;3644;53.480;10.004;2023-04-25T04:06:52;8.00;99.90
7206;DHT22;3644;53.480;10.004;2023-04-25T04:09:18;8.10;99.90
7206;DHT22;3644;53.480;10.004;2023-04-25T04:11:44;8.20;99.90
7206;DHT22;3644;53.480;10.004;2023-04-25T04:14:10;8.00;99.90
7206;DHT22;3644;53.480;10.004;2023-04-25T04:16:36;8.00;99.90
7206;DHT22;3644;53.480;10.004;2023-04-25T04:19:01;8.00;99.90
7206;DHT22;3644;53.480;10.004;2023-04-25T04:21:27;8.20;99.90
7206;DHT22;3644;53.480;10.004;2023-04-25T04:23:53;8.30;99.90
7206;DHT22;3644;53.480;10.004;2023-04-25T04:26:19;8.40;99.90
7206;DHT22;3644;53.480;10.004;2023-04-25T04:28:48;8.40;99.90
7206;DHT22;3644;53.480;10.004;2023-04-25T04:31:15;8.30;99.90
7206;DHT22;3644;53.480;10.004;2023-04-25T04:33:42;8.40;99.90
7206;DHT22;3644;53.480;10.004;2023-04-25T04:36:07;8.50;99.90
7206;DHT22;3644;53.480;10.004;2023-04-25T04:38:33;8.50;99.90
7206;DHT22;3644;53.480;10.004;2023-04-25T04:40:59;8.40;99.90
7206;DHT22;3644;53.480;10.004;2023-04-25T04:43:24;8.50;99.90
7206;DHT22;3644;53.480;10.004;2023-04-25T04:45:50;8.40;99.90
7206;DHT22;3644;53.480;10.004;2023-04-25T04:48:16;8.40;99.90
7206;DHT22;3644;53.480;10.004;2023-04-25T04:50:43;8.40;99.90
7206;DHT22;3644;53.480;10.004;2023-04-25T04:53:10;8.40;99.90
7206;DHT22;3644;53.480;10.004;2023-04-25T04:55:36;8.40;99.90
7206;DHT22;3644;53.480;10.004;2023-04-25T04:58:01;8.60;99.90
7206;DHT22;3644;53.480;10.004;2023-04-25T05:00:27;8.70;99.90
7206;DHT22;3644;53.480;10.004;2023-04-25T05:02:55;8.50;99.90
7206;DHT22;3644;53.480;10.004;2023-04-25T05:05:20;8.50;99.90
7206;DHT22;3644;53.480;10.004;2023-04-25T05:07:46;8.50;99.90
7206;DHT22;3644;53.480;10.004;2023-04-25T05:10:11;8.60;99.90
7206;DHT22;3644;53.480;10.004;2023-04-25T05:12:37;8.70;99.90
7206;DHT22;3644;53.480;10.004;2023-04-25T05:15:02;8.60;99.90
7206;DHT22;3644;53.480;10.004;2023-04-25T05:17:28;8.50;99.90
7206;DHT22;3644;53.480;10.004;2023-04-25T05:19:53;8.60;99.90
7206;DHT22;3644;53.480;10.004;2023-04-25T05:22:19;8.60;99.90
7206;DHT22;3644;53.480;10.004;2023-04-25T05:24:44;8.70;99.90
7206;DHT22;3644;53.480;10.004;2023-04-25T05:27:10;8.70;99.90
7206;DHT22;3644;53.480;10.004;2023-04-25T05:29:35;8.70;99.90
7206;DHT22;3644;53.480;10.004;2023-04-25T05:32:01;8.60;99.90
7206;DHT22;3644;53.480;10.004;2023-04-25T05:34:27;8.50;99.90
7206;DHT22;3644;53.480;10.004;2023-04-25T05:36:52;8.50;99.90
7206;DHT22;3644;53.480;10.004;2023-04-25T05:39:18;8.50;99.90
7206;DHT22;3644;53.480;10.004;2023-04-25T05:41:43;8.50;99.90
7206;DHT22;3644;53.480;10.004;2023-04-25T05:44:09;8.50;99.90
7206;DHT22;3644;53.480;10.004;2023-04-25T05:46:35;8.30;99.90
7206;DHT22;3644;53.480;10.004;2023-04-25T05:49:00;8.30;99.90
7206;DHT22;3644;53.480;10.004;2023-04-25T05:51:26;8.30;99.90
7206;DHT22;3644;53.480;10.004;2023-04-25T05:53:53;8.40;99.90
7206;DHT22;3644;53.480;10.004;2023-04-25T05:56:18;8.50;99.90
7206;DHT22;3644;53.480;10.004;2023-04-25T05:58:44;8.40;99.90
7206;DHT22;3644;53.480;10.004;2023-04-25T06:01:09;8.50;99.90
7206;DHT22;3644;53.480;10.004;2023-04-25T06:03:35;8.50;99.90
7206;DHT22;3644;53.480;10.004;2023-04-25T06:06:00;8.60;99.90
7206;DHT22;3644;53.480;10.004;2023-04-25T06:08:26;8.70;99.90
7206;DHT22;3644;53.480;10.004;2023-04-25T06:10:51;8.90;99.90
7206;DHT22;3644;53.480;10.004;2023-04-25T06:13:17;8.90;99.90
7206;DHT22;3644;53.480;10.004;2023-04-25T06:15:42;8.90;99.90
7206;DHT22;3644;53.480;10.004;2023-04-25T06:18:08;9.10;99.90
7206;DHT22;3644;53.480;10.004;2023-04-25T06:20:34;9.10;99.90
7206;DHT22;3644;53.480;10.004;2023-04-25T06:22:59;9.20;99.90
7206;DHT22;3644;53.480;10.004;2023-04-25T06:25:25;9.10;99.90
7206;DHT22;3644;53.480;10.004;2023-04-25T06:27:50;9.30;99.90
7206;DHT22;3644;53.480;10.004;2023-04-25T06:30:16;9.30;99.90
7206;DHT22;3644;53.480;10.004;2023-04-25T06:32:43;9.10;99.90
7206;DHT22;3644;53.480;10.004;2023-04-25T06:35:09;9.00;99.90
7206;DHT22;3644;53.480;10.004;2023-04-25T06:37:35;9.10;99.90
7206;DHT22;3644;53.480;10.004;2023-04-25T06:40:00;9.10;99.90
7206;DHT22;3644;53.480;10.004;2023-04-25T06:42:26;8.80;99.90
7206;DHT22;3644;53.480;10.004;2023-04-25T06:44:51;8.90;99.90
7206;DHT22;3644;53.480;10.004;2023-04-25T06:47:17;9.00;99.90
7206;DHT22;3644;53.480;10.004;2023-04-25T06:49:42;9.00;99.90
7206;DHT22;3644;53.480;10.004;2023-04-25T06:52:08;9.00;99.90
7206;DHT22;3644;53.480;10.004;2023-04-25T06:54:37;9.10;99.90
7206;DHT22;3644;53.480;10.004;2023-04-25T06:57:02;9.30;99.90
7206;DHT22;3644;53.480;10.004;2023-04-25T06:59:28;9.60;99.90
7206;DHT22;3644;53.480;10.004;2023-04-25T07:01:53;9.50;99.90
7206;DHT22;3644;53.480;10.004;2023-04-25T07:04:19;9.40;99.90
7206;DHT22;3644;53.480;10.004;2023-04-25T07:06:44;9.60;99.90
7206;DHT22;3644;53.480;10.004;2023-04-25T07:09:12;9.70;99.90
7206;DHT22;3644;53.480;10.004;2023-04-25T07:11:38;9.80;99.90
7206;DHT22;3644;53.480;10.004;2023-04-25T07:14:03;9.80;99.90
7206;DHT22;3644;53.480;10.004;2023-04-25T07:16:29;9.70;99.90
7206;DHT22;3644;53.480;10.004;2023-04-25T07:18:54;9.70;99.90
7206;DHT22;3644;53.480;10.004;2023-04-25T07:21:20;9.80;99.90
7206;DHT22;3644;53.480;10.004;2023-04-25T07:23:46;10.00;99.90
7206;DHT22;3644;53.480;10.004;2023-04-25T07:26:12;10.00;99.90
7206;DHT22;3644;53.480;10.004;2023-04-25T07:28:37;9.90;99.90
7206;DHT22;3644;53.480;10.004;2023-04-25T07:31:03;9.90;99.90
7206;DHT22;3644;53.480;10.004;2023-04-25T07:33:29;10.10;99.90
7206;DHT22;3644;53.480;10.004;2023-04-25T07:35:55;10.20;99.90
7206;DHT22;3644;53.480;10.004;2023-04-25T07:38:21;10.20;99.90
7206;DHT22;3644;53.480;10.004;2023-04-25T07:40:48;10.30;99.90
7206;DHT22;3644;53.480;10.004;2023-04-25T07:43:13;10.30;99.90
7206;DHT22;3644;53.480;10.004;2023-04-25T07:45:42;10.10;99.90
7206;DHT22;3644;53.480;10.004;2023-04-25T07:48:07;10.20;99.90
7206;DHT22;3644;53.480;10.004;2023-04-25T07:50:33;10.10;99.90
7206;DHT22;3644;53.480;10.004;2023-04-25T07:52:58;10.20;99.90
7206;DHT22;3644;53.480;10.004;2023-04-25T07:55:24;10.40;99.90
7206;DHT22;3644;53.480;10.004;2023-04-25T07:57:49;10.70;99.90
7206;DHT22;3644;53.480;10.004;2023-04-25T08:00:15;11.00;99.90
7206;DHT22;3644;53.480;10.004;2023-04-25T08:02:41;11.00;99.90
7206;DHT22;3644;53.480;10.004;2023-04-25T08:05:07;11.10;99.90
7206;DHT22;3644;53.480;10.004;2023-04-25T08:07:33;11.40;99.90
7206;DHT22;3644;53.480;10.004;2023-04-25T08:09:59;11.50;99.90
7206;DHT22;3644;53.480;10.004;2023-04-25T08:12:24;11.20;99.90
7206;DHT22;3644;53.480;10.004;2023-04-25T08:14:50;11.00;99.90
7206;DHT22;3644;53.480;10.004;2023-04-25T08:17:16;10.90;99.90
7206;DHT22;3644;53.480;10.004;2023-04-25T08:19:41;11.00;99.90
7206;DHT22;3644;53.480;10.004;2023-04-25T08:22:07;11.00;99.90
7206;DHT22;3644;53.480;10.004;2023-04-25T08:24:32;11.00;99.90
7206;DHT22;3644;53.480;10.004;2023-04-25T08:26:58;10.90;99.90
7206;DHT22;3644;53.480;10.004;2023-04-25T08:29:24;10.80;99.90
7206;DHT22;3644;53.480;10.004;2023-04-25T08:31:51;10.60;99.90
7206;DHT22;3644;53.480;10.004;2023-04-25T08:34:18;10.40;99.90
7206;DHT22;3644;53.480;10.004;2023-04-25T08:36:43;10.40;99.90
7206;DHT22;3644;53.480;10.004;2023-04-25T08:39:09;10.50;99.90
7206;DHT22;3644;53.480;10.004;2023-04-25T08:41:37;10.40;99.90
7206;DHT22;3644;53.480;10.004;2023-04-25T08:44:03;10.50;99.90
7206;DHT22;3644;53.480;10.004;2023-04-25T08:46:30;10.50;99.90
7206;DHT22;3644;53.480;10.004;2023-04-25T08:49:00;10.50;99.90
7206;DHT22;3644;53.480;10.004;2023-04-25T08:51:27;10.70;99.90
7206;DHT22;3644;53.480;10.004;2023-04-25T08:53:54;10.60;99.90
7206;DHT22;3644;53.480;10.004;2023-04-25T08:56:21;10.70;99.90
7206;DHT22;3644;53.480;10.004;2023-04-25T08:58:49;11.00;99.90
7206;DHT22;3644;53.480;10.004;2023-04-25T09:01:15;11.40;99.90
7206;DHT22;3644;53.480;10.004;2023-04-25T09:03:42;11.50;99.90
7206;DHT22;3644;53.480;10.004;2023-04-25T09:06:10;11.20;99.90
7206;DHT22;3644;53.480;10.004;2023-04-25T09:08:37;10.40;99.90
7206;DHT22;3644;53.480;10.004;2023-04-25T09:11:02;9.70;99.90
7206;DHT22;3644;53.480;10.004;2023-04-25T09:13:28;9.30;99.90
7206;DHT22;3644;53.480;10.004;2023-04-25T09:15:56;8.80;99.90
7206;DHT22;3644;53.480;10.004;2023-04-25T09:18:30;8.80;99.90
7206;DHT22;3644;53.480;10.004;2023-04-25T09:20:58;8.70;99.90
7206;DHT22;3644;53.480;10.004;2023-04-25T09:23:30;8.80;99.90
7206;DHT22;3644;53.480;10.004;2023-04-25T09:25:55;9.00;99.90
7206;DHT22;3644;53.480;10.004;2023-04-25T09:28:27;9.10;99.90
7206;DHT22;3644;53.480;10.004;2023-04-25T09:30:56;9.20;99.90
7206;DHT22;3644;53.480;10.004;2023-04-25T09:33:30;9.10;99.90
7206;DHT22;3644;53.480;10.004;2023-04-25T09:36:03;9.40;99.90
7206;DHT22;3644;53.480;10.004;2023-04-25T09:38:39;9.60;99.90
7206;DHT22;3644;53.480;10.004;2023-04-25T09:41:06;9.70;99.90
7206;DHT22;3644;53.480;10.004;2023-04-25T09:43:32;10.00;99.90
7206;DHT22;3644;53.480;10.004;2023-04-25T09:45:58;10.30;99.90
7206;DHT22;3644;53.480;10.004;2023-04-25T09:48:26;10.30;99.90
7206;DHT22;3644;53.480;10.004;2023-04-25T09:51:11;10.50;99.90
7206;DHT22;3644;53.480;10.004;2023-04-25T09:53:40;10.20;99.90
7206;DHT22;3644;53.480;10.004;2023-04-25T09:56:08;9.80;99.90
7206;DHT22;3644;53.480;10.004;2023-04-25T09:58:35;9.80;99.90
7206;DHT22;3644;53.480;10.004;2023-04-25T10:01:05;10.00;99.90
7206;DHT22;3644;53.480;10.004;2023-04-25T10:03:32;9.90;99.90
7206;DHT22;3644;53.480;10.004;2023-04-25T10:06:03;9.90;99.90
7206;DHT22;3644;53.480;10.004;2023-04-25T10:08:37;10.00;99.90
7206;DHT22;3644;53.480;10.004;2023-04-25T10:11:04;10.20;99.90
7206;DHT22;3644;53.480;10.004;2023-04-25T10:13:31;10.10;99.90
7206;DHT22;3644;53.480;10.004;2023-04-25T10:15:58;10.40;99.90
7206;DHT22;3644;53.480;10.004;2023-04-25T10:18:25;10.40;99.90
7206;DHT22;3644;53.480;10.004;2023-04-25T10:20:51;10.20;99.90
7206;DHT22;3644;53.480;10.004;2023-04-25T10:23:17;10.40;99.90
7206;DHT22;3644;53.480;10.004;2023-04-25T10:25:43;10.20;99.90
7206;DHT22;3644;53.480;10.004;2023-04-25T10:28:09;10.30;99.90
7206;DHT22;3644;53.480;10.004;2023-04-25T10:30:34;10.50;99.90
7206;DHT22;3644;53.480;10.004;2023-04-25T10:33:00;10.70;99.90
7206;DHT22;3644;53.480;10.004;2023-04-25T10:35:27;10.70;99.90
7206;DHT22;3644;53.480;10.004;2023-04-25T10:40:22;10.80;99.90
7206;DHT22;3644;53.480;10.004;2023-04-25T10:42:48;10.90;99.90
7206;DHT22;3644;53.480;10.004;2023-04-25T10:45:14;11.20;99.90
7206;DHT22;3644;53.480;10.004;2023-04-25T10:47:46;11.30;99.90
7206;DHT22;3644;53.480;10.004;2023-04-25T10:50:14;10.90;99.90
7206;DHT22;3644;53.480;10.004;2023-04-25T10:52:41;10.80;99.90
7206;DHT22;3644;53.480;10.004;2023-04-25T10:55:06;10.80;99.90
7206;DHT22;3644;53.480;10.004;2023-04-25T10:57:40;10.80;99.90
7206;DHT22;3644;53.480;10.004;2023-04-25T11:02:47;10.80;99.90
7206;DHT22;3644;53.480;10.004;2023-04-25T11:07:53;11.00;99.90
7206;DHT22;3644;53.480;10.004;2023-04-25T11:10:30;11.10;99.90
7206;DHT22;3644;53.480;10.004;2023-04-25T11:12:59;10.90;99.90
7206;DHT22;3644;53.480;10.004;2023-04-25T11:15:25;11.00;99.90
7206;DHT22;3644;53.480;10.004;2023-04-25T11:17:52;10.90;99.90
7206;DHT22;3644;53.480;10.004;2023-04-25T11:20:17;10.70;99.90
7206;DHT22;3644;53.480;10.004;2023-04-25T11:22:45;10.90;99.90
7206;DHT22;3644;53.480;10.004;2023-04-25T11:25:12;11.10;99.90
7206;DHT22;3644;53.480;10.004;2023-04-25T11:28:00;11.10;99.90
7206;DHT22;3644;53.480;10.004;2023-04-25T11:30:26;11.20;99.90
7206;DHT22;3644;53.480;10.004;2023-04-25T11:32:54;11.20;99.90
7206;DHT22;3644;53.480;10.004;2023-04-25T11:35:20;11.40;99.90
7206;DHT22;3644;53.480;10.004;2023-04-25T11:37:48;11.60;99.90
7206;DHT22;3644;53.480;10.004;2023-04-25T11:40:14;11.60;99.90
7206;DHT22;3644;53.480;10.004;2023-04-25T11:42:44;11.80;99.90
7206;DHT22;3644;53.480;10.004;2023-04-25T11:45:09;11.90;99.90
7206;DHT22;3644;53.480;10.004;2023-04-25T11:47:36;11.50;99.90
7206;DHT22;3644;53.480;10.004;2023-04-25T11:50:03;10.60;99.90
7206;DHT22;3644;53.480;10.004;2023-04-25T11:52:55;10.20;99.90
7206;DHT22;3644;53.480;10.004;2023-04-25T11:55:21;7.30;99.90
7206;DHT22;3644;53.480;10.004;2023-04-25T11:57:48;9.90;99.90
7206;DHT22;3644;53.480;10.004;2023-04-25T12:00:18;10.10;99.90
7206;DHT22;3644;53.480;10.004;2023-04-25T12:02:50;10.00;99.90
7206;DHT22;3644;53.480;10.004;2023-04-25T12:05:16;10.20;99.90
7206;DHT22;3644;53.480;10.004;2023-04-25T12:07:42;10.40;99.90
7206;DHT22;3644;53.480;10.004;2023-04-25T12:10:12;10.70;99.90
7206;DHT22;3644;53.480;10.004;2023-04-25T12:12:41;10.80;99.90
7206;DHT22;3644;53.480;10.004;2023-04-25T12:17:41;11.50;99.90
7206;DHT22;3644;53.480;10.004;2023-04-25T12:20:18;11.60;99.90
7206;DHT22;3644;53.480;10.004;2023-04-25T12:22:46;11.60;99.90
7206;DHT22;3644;53.480;10.004;2023-04-25T12:25:39;11.40;99.90
7206;DHT22;3644;53.480;10.004;2023-04-25T12:28:17;11.40;99.90
7206;DHT22;3644;53.480;10.004;2023-04-25T12:30:54;11.60;99.90
7206;DHT22;3644;53.480;10.004;2023-04-25T12:33:21;11.60;99.90
7206;DHT22;3644;53.480;10.004;2023-04-25T12:35:47;11.70;99.90
7206;DHT22;3644;53.480;10.004;2023-04-25T12:38:24;11.60;99.90
7206;DHT22;3644;53.480;10.004;2023-04-25T12:40:50;11.30;99.90
7206;DHT22;3644;53.480;10.004;2023-04-25T12:43:16;11.30;99.90
7206;DHT22;3644;53.480;10.004;2023-04-25T12:45:42;11.00;99.90
7206;DHT22;3644;53.480;10.004;2023-04-25T12:48:08;10.90;99.90
7206;DHT22;3644;53.480;10.004;2023-04-25T12:50:33;11.00;99.90
7206;DHT22;3644;53.480;10.004;2023-04-25T12:52:59;11.10;99.90
7206;DHT22;3644;53.480;10.004;2023-04-25T12:55:25;11.30;99.90
7206;DHT22;3644;53.480;10.004;2023-04-25T12:57:51;11.30;99.90
7206;DHT22;3644;53.480;10.004;2023-04-25T13:00:17;11.20;99.90
7206;DHT22;3644;53.480;10.004;2023-04-25T13:02:45;11.60;99.90
7206;DHT22;3644;53.480;10.004;2023-04-25T13:05:12;12.10;99.90
7206;DHT22;3644;53.480;10.004;2023-04-25T13:07:40;12.30;99.90
7206;DHT22;3644;53.480;10.004;2023-04-25T13:10:07;14.80;99.90
7206;DHT22;3644;53.480;10.004;2023-04-25T13:12:32;11.60;99.90
7206;DHT22;3644;53.480;10.004;2023-04-25T13:14:58;11.20;99.90
7206;DHT22;3644;53.480;10.004;2023-04-25T13:17:23;11.10;99.90
7206;DHT22;3644;53.480;10.004;2023-04-25T13:19:49;11.30;99.90
7206;DHT22;3644;53.480;10.004;2023-04-25T13:22:15;11.20;99.90
7206;DHT22;3644;53.480;10.004;2023-04-25T13:24:42;10.90;99.90
7206;DHT22;3644;53.480;10.004;2023-04-25T13:27:07;10.80;99.90
7206;DHT22;3644;53.480;10.004;2023-04-25T13:29:33;10.70;99.90
7206;DHT22;3644;53.480;10.004;2023-04-25T13:32:01;10.30;99.90
7206;DHT22;3644;53.480;10.004;2023-04-25T13:34:27;10.00;99.90
7206;DHT22;3644;53.480;10.004;2023-04-25T13:36:53;10.10;99.90
7206;DHT22;3644;53.480;10.004;2023-04-25T13:39:19;10.20;99.90
7206;DHT22;3644;53.480;10.004;2023-04-25T13:41:44;10.10;99.90
7206;DHT22;3644;53.480;10.004;2023-04-25T13:44:10;10.40;99.90
7206;DHT22;3644;53.480;10.004;2023-04-25T13:46:35;10.50;99.90
7206;DHT22;3644;53.480;10.004;2023-04-25T13:49:02;10.70;99.90
7206;DHT22;3644;53.480;10.004;2023-04-25T13:51:28;10.80;99.90
7206;DHT22;3644;53.480;10.004;2023-04-25T13:53:53;11.20;99.90
7206;DHT22;3644;53.480;10.004;2023-04-25T13:56:19;11.60;99.90
7206;DHT22;3644;53.480;10.004;2023-04-25T13:58:45;12.10;99.90
7206;DHT22;3644;53.480;10.004;2023-04-25T14:01:11;12.20;99.90
7206;DHT22;3644;53.480;10.004;2023-04-25T14:03:36;11.50;99.90
7206;DHT22;3644;53.480;10.004;2023-04-25T14:06:02;10.70;99.90
7206;DHT22;3644;53.480;10.004;2023-04-25T14:08:28;10.20;99.90
7206;DHT22;3644;53.480;10.004;2023-04-25T14:10:54;9.90;99.90
7206;DHT22;3644;53.480;10.004;2023-04-25T14:13:19;9.60;99.90
7206;DHT22;3644;53.480;10.004;2023-04-25T14:15:45;9.70;99.90
7206;DHT22;3644;53.480;10.004;2023-04-25T14:18:11;9.90;99.90
7206;DHT22;3644;53.480;10.004;2023-04-25T14:20:36;10.20;99.90
7206;DHT22;3644;53.480;10.004;2023-04-25T14:23:02;10.20;99.90
7206;DHT22;3644;53.480;10.004;2023-04-25T14:25:29;10.20;99.90
7206;DHT22;3644;53.480;10.004;2023-04-25T14:27:54;10.50;99.90
7206;DHT22;3644;53.480;10.004;2023-04-25T14:30:21;10.60;99.90
7206;DHT22;3644;53.480;10.004;2023-04-25T14:32:49;10.90;99.90
7206;DHT22;3644;53.480;10.004;2023-04-25T14:35:14;11.20;99.90
7206;DHT22;3644;53.480;10.004;2023-04-25T14:37:40;11.10;99.90
7206;DHT22;3644;53.480;10.004;2023-04-25T14:40:07;11.00;99.90
7206;DHT22;3644;53.480;10.004;2023-04-25T14:42:36;10.80;99.90
7206;DHT22;3644;53.480;10.004;2023-04-25T14:45:02;10.80;99.90
7206;DHT22;3644;53.480;10.004;2023-04-25T14:47:28;10.70;99.90
7206;DHT22;3644;53.480;10.004;2023-04-25T14:49:53;10.60;99.90
7206;DHT22;3644;53.480;10.004;2023-04-25T14:52:20;10.50;99.90
7206;DHT22;3644;53.480;10.004;2023-04-25T14:54:46;10.50;99.90
7206;DHT22;3644;53.480;10.004;2023-04-25T14:57:12;10.80;99.90
7206;DHT22;3644;53.480;10.004;2023-04-25T14:59:38;11.00;99.90
7206;DHT22;3644;53.480;10.004;2023-04-25T15:02:04;11.10;99.90
7206;DHT22;3644;53.480;10.004;2023-04-25T15:04:29;11.30;99.90
7206;DHT22;3644;53.480;10.004;2023-04-25T15:06:55;11.20;99.90
7206;DHT22;3644;53.480;10.004;2023-04-25T15:09:21;11.20;99.90
7206;DHT22;3644;53.480;10.004;2023-04-25T15:11:48;11.40;99.90
7206;DHT22;3644;53.480;10.004;2023-04-25T15:14:13;11.50;99.90
7206;DHT22;3644;53.480;10.004;2023-04-25T15:16:39;11.40;99.90
7206;DHT22;3644;53.480;10.004;2023-04-25T15:19:04;11.20;99.90
7206;DHT22;3644;53.480;10.004;2023-04-25T15:21:31;10.70;99.90
7206;DHT22;3644;53.480;10.004;2023-04-25T15:23:57;10.40;99.90
7206;DHT22;3644;53.480;10.004;2023-04-25T15:26:22;10.30;99.90
7206;DHT22;3644;53.480;10.004;2023-04-25T15:28:48;10.20;99.90
7206;DHT22;3644;53.480;10.004;2023-04-25T15:31:14;10.30;99.90
7206;DHT22;3644;53.480;10.004;2023-04-25T15:33:39;10.40;99.90
7206;DHT22;3644;53.480;10.004;2023-04-25T15:36:05;10.50;99.90
7206;DHT22;3644;53.480;10.004;2023-04-25T15:38:30;10.60;99.90
7206;DHT22;3644;53.480;10.004;2023-04-25T15:40:56;10.90;99.90
7206;DHT22;3644;53.480;10.004;2023-04-25T15:43:22;11.20;99.90
7206;DHT22;3644;53.480;10.004;2023-04-25T15:45:47;11.50;99.90
7206;DHT22;3644;53.480;10.004;2023-04-25T15:48:13;11.60;99.90
7206;DHT22;3644;53.480;10.004;2023-04-25T15:50:38;11.40;99.90
7206;DHT22;3644;53.480;10.004;2023-04-25T15:53:04;11.10;99.90
7206;DHT22;3644;53.480;10.004;2023-04-25T15:55:29;10.70;99.90
7206;DHT22;3644;53.480;10.004;2023-04-25T15:57:55;10.60;99.90
7206;DHT22;3644;53.480;10.004;2023-04-25T16:00:20;10.50;99.90